Sonderso, Denmark
Current Conditions -  °F | °C
As of 4:50 PM on Wednesday 26 Nov 2014 (Local Time) from EKOD Reporting Station
Scattered Clouds Scattered Clouds  
Wind Chill: 36°   Ceiling: Unl
Heat Index: 41°   Visibility: 6mi
Dew Point: 41°   Wind: 8mph
Humidity: 100%   Direction: 100°E
Pressure: 30.18"   Gusts: NA
Location:  55.49°N, 10.26°E
Report Text: EKOD 261550Z 10007KT 9999 FEW021 SCT190 05/05 Q1022
Loading
Personal Weather Stations






























Interactive Weather Map New forecast layout! Learn more

10-Day Weather Forecast

Advertisements
Track Severe Weather on mobile